sensor_id;sensor_type;location;lat;lon;timestamp;pressure;altitude;pressure_sealevel;temperature;humidity
11017;BME280;54687;50.800;6.772;2023-03-13T00:00:47;61130.66;;;-144.06;56.57
11017;BME280;54687;50.800;6.772;2023-03-13T00:03:14;61097.09;;;-144.06;56.79
11017;BME280;54687;50.800;6.772;2023-03-13T00:05:42;61080.34;;;-144.06;56.92
11017;BME280;54687;50.800;6.772;2023-03-13T00:08:09;61103.38;;;-144.06;56.98
11017;BME280;54687;50.800;6.772;2023-03-13T00:10:36;61078.25;;;-144.06;56.79
11017;BME280;54687;50.800;6.772;2023-03-13T00:13:08;61113.88;;;-144.06;56.92
11017;BME280;54687;50.800;6.772;2023-03-13T00:15:35;61118.06;;;-144.06;56.89
11017;BME280;54687;50.800;6.772;2023-03-13T00:18:02;61139.03;;;-144.06;56.86
11017;BME280;54687;50.800;6.772;2023-03-13T00:20:31;61080.34;;;-144.06;56.86
11017;BME280;54687;50.800;6.772;2023-03-13T00:22:59;61113.88;;;-144.06;57.07
11017;BME280;54687;50.800;6.772;2023-03-13T00:25:26;61080.34;;;-144.06;57.09
11017;BME280;54687;50.800;6.772;2023-03-13T00:27:53;61059.38;;;-144.06;57.16
11017;BME280;54687;50.800;6.772;2023-03-13T00:30:20;61097.09;;;-144.06;57.42
11017;BME280;54687;50.800;6.772;2023-03-13T00:32:47;61059.38;;;-144.06;57.68
11017;BME280;54687;50.800;6.772;2023-03-13T00:35:14;61071.94;;;-144.06;58.07
11017;BME280;54687;50.800;6.772;2023-03-13T00:37:41;61122.25;;;-144.06;58.32
11017;BME280;54687;50.800;6.772;2023-03-13T00:40:10;61080.34;;;-144.06;58.58
11017;BME280;54687;50.800;6.772;2023-03-13T00:42:37;61128.53;;;-144.06;59.03
11017;BME280;54687;50.800;6.772;2023-03-13T00:45:04;61080.34;;;-144.06;58.93
11017;BME280;54687;50.800;6.772;2023-03-13T00:47:31;61082.44;;;-144.06;58.70
11017;BME280;54687;50.800;6.772;2023-03-13T00:49:58;61099.19;;;-144.06;58.89
11017;BME280;54687;50.800;6.772;2023-03-13T00:52:24;61101.28;;;-144.06;58.86
11017;BME280;54687;50.800;6.772;2023-03-13T00:54:55;61080.34;;;-144.06;58.59
11017;BME280;54687;50.800;6.772;2023-03-13T00:57:23;61097.09;;;-144.06;58.95
11017;BME280;54687;50.800;6.772;2023-03-13T00:59:50;61120.16;;;-144.06;59.08
11017;BME280;54687;50.800;6.772;2023-03-13T01:02:19;61082.44;;;-144.06;58.92
11017;BME280;54687;50.800;6.772;2023-03-13T01:04:46;61130.66;;;-144.06;59.23
11017;BME280;54687;50.800;6.772;2023-03-13T01:07:13;61071.94;;;-144.06;58.98
11017;BME280;54687;50.800;6.772;2023-03-13T01:09:39;61101.28;;;-144.06;59.19
11017;BME280;54687;50.800;6.772;2023-03-13T01:12:08;61103.38;;;-144.06;59.11
11017;BME280;54687;50.800;6.772;2023-03-13T01:14:36;61055.19;;;-144.06;59.28
11017;BME280;54687;50.800;6.772;2023-03-13T01:17:03;61090.81;;;-144.06;59.08
11017;BME280;54687;50.800;6.772;2023-03-13T01:19:30;61132.75;;;-144.06;59.37
11017;BME280;54687;50.800;6.772;2023-03-13T01:21:56;61113.88;;;-144.06;59.18
11017;BME280;54687;50.800;6.772;2023-03-13T01:24:23;61082.44;;;-144.06;59.23
11017;BME280;54687;50.800;6.772;2023-03-13T01:26:50;61092.91;;;-144.06;59.31
11017;BME280;54687;50.800;6.772;2023-03-13T01:29:16;61107.59;;;-144.06;59.45
11017;BME280;54687;50.800;6.772;2023-03-13T01:31:44;61109.69;;;-144.06;59.27
11017;BME280;54687;50.800;6.772;2023-03-13T01:34:11;61134.84;;;-144.06;59.39
11017;BME280;54687;50.800;6.772;2023-03-13T01:36:37;61109.69;;;-144.06;59.40
11017;BME280;54687;50.800;6.772;2023-03-13T01:39:05;61092.91;;;-144.06;59.42
11017;BME280;54687;50.800;6.772;2023-03-13T01:41:31;61101.28;;;-144.06;59.40
11017;BME280;54687;50.800;6.772;2023-03-13T01:43:58;61076.13;;;-144.06;59.60
11017;BME280;54687;50.800;6.772;2023-03-13T01:46:26;61126.44;;;-144.06;59.73
11017;BME280;54687;50.800;6.772;2023-03-13T01:48:57;61080.34;;;-144.06;59.77
11017;BME280;54687;50.800;6.772;2023-03-13T01:51:28;61084.53;;;-144.06;59.79
11017;BME280;54687;50.800;6.772;2023-03-13T01:53:59;61046.78;;;-144.06;60.02
11017;BME280;54687;50.800;6.772;2023-03-13T01:56:33;61088.72;;;-144.06;60.17
11017;BME280;54687;50.800;6.772;2023-03-13T01:59:02;61051.00;;;-144.06;60.38
11017;BME280;54687;50.800;6.772;2023-03-13T02:01:30;61124.34;;;-144.06;60.36
11017;BME280;54687;50.800;6.772;2023-03-13T02:04:00;61076.13;;;-144.06;60.40
11017;BME280;54687;50.800;6.772;2023-03-13T02:06:29;61109.69;;;-144.06;60.48
11017;BME280;54687;50.800;6.772;2023-03-13T02:08:58;61109.69;;;-144.06;60.89
11017;BME280;54687;50.800;6.772;2023-03-13T02:11:34;61088.72;;;-144.06;61.21
11017;BME280;54687;50.800;6.772;2023-03-13T02:14:03;61063.56;;;-144.06;61.51
11017;BME280;54687;50.800;6.772;2023-03-13T02:16:32;61088.72;;;-144.06;62.15
11017;BME280;54687;50.800;6.772;2023-03-13T02:19:01;61071.94;;;-144.06;62.34
11017;BME280;54687;50.800;6.772;2023-03-13T02:21:40;61076.13;;;-144.06;62.15
11017;BME280;54687;50.800;6.772;2023-03-13T02:24:14;61105.50;;;-144.06;62.58
11017;BME280;54687;50.800;6.772;2023-03-13T02:26:46;61101.28;;;-144.06;63.07
11017;BME280;54687;50.800;6.772;2023-03-13T02:29:12;61090.81;;;-144.06;63.35
11017;BME280;54687;50.800;6.772;2023-03-13T02:31:44;61120.16;;;-144.06;63.96
11017;BME280;54687;50.800;6.772;2023-03-13T02:34:13;61092.91;;;-144.06;64.43
11017;BME280;54687;50.800;6.772;2023-03-13T02:36:40;61124.34;;;-144.06;64.51
11017;BME280;54687;50.800;6.772;2023-03-13T02:39:08;61122.25;;;-144.06;64.89
11017;BME280;54687;50.800;6.772;2023-03-13T02:41:36;61090.81;;;-144.06;65.04
11017;BME280;54687;50.800;6.772;2023-03-13T02:44:05;61097.09;;;-144.06;64.72
11017;BME280;54687;50.800;6.772;2023-03-13T02:46:42;61097.09;;;-144.06;64.91
11017;BME280;54687;50.800;6.772;2023-03-13T02:49:19;61118.06;;;-144.06;64.46
11017;BME280;54687;50.800;6.772;2023-03-13T02:51:46;61095.00;;;-144.06;64.72
11017;BME280;54687;50.800;6.772;2023-03-13T02:54:16;61092.91;;;-144.06;64.50
11017;BME280;54687;50.800;6.772;2023-03-13T02:56:46;61088.72;;;-144.06;64.19
11017;BME280;54687;50.800;6.772;2023-03-13T02:59:15;61118.06;;;-144.06;64.43
11017;BME280;54687;50.800;6.772;2023-03-13T03:01:42;61134.84;;;-144.06;64.21
11017;BME280;54687;50.800;6.772;2023-03-13T03:04:08;61126.44;;;-144.06;64.23
11017;BME280;54687;50.800;6.772;2023-03-13T03:06:35;61095.00;;;-144.06;64.16
11017;BME280;54687;50.800;6.772;2023-03-13T03:09:02;61092.91;;;-144.06;64.16
11017;BME280;54687;50.800;6.772;2023-03-13T03:11:29;61099.19;;;-144.06;63.95
11017;BME280;54687;50.800;6.772;2023-03-13T03:13:56;61122.25;;;-144.06;64.13
11017;BME280;54687;50.800;6.772;2023-03-13T03:16:24;61076.13;;;-144.06;64.21
11017;BME280;54687;50.800;6.772;2023-03-13T03:18:50;61084.53;;;-144.06;64.19
11017;BME280;54687;50.800;6.772;2023-03-13T03:21:17;61128.53;;;-144.06;64.13
11017;BME280;54687;50.800;6.772;2023-03-13T03:23:43;61118.06;;;-144.06;64.16
11017;BME280;54687;50.800;6.772;2023-03-13T03:26:10;61128.53;;;-144.06;64.17
11017;BME280;54687;50.800;6.772;2023-03-13T03:28:37;61136.94;;;-144.06;64.15
11017;BME280;54687;50.800;6.772;2023-03-13T03:31:03;61038.41;;;-144.06;64.07
11017;BME280;54687;50.800;6.772;2023-03-13T03:33:31;61097.09;;;-144.06;64.25
11017;BME280;54687;50.800;6.772;2023-03-13T03:35:59;61074.03;;;-144.06;64.37
11017;BME280;54687;50.800;6.772;2023-03-13T03:38:26;61126.44;;;-144.06;64.47
11017;BME280;54687;50.800;6.772;2023-03-13T03:40:53;61071.94;;;-144.06;64.32
11017;BME280;54687;50.800;6.772;2023-03-13T03:43:19;61122.25;;;-144.06;64.47
11017;BME280;54687;50.800;6.772;2023-03-13T03:45:46;61071.94;;;-144.06;64.26
11017;BME280;54687;50.800;6.772;2023-03-13T03:48:12;61076.13;;;-144.06;64.19
11017;BME280;54687;50.800;6.772;2023-03-13T03:50:40;61074.03;;;-144.06;64.15
11017;BME280;54687;50.800;6.772;2023-03-13T03:53:07;61063.56;;;-144.06;64.10
11017;BME280;54687;50.800;6.772;2023-03-13T03:55:34;61109.69;;;-144.06;64.21
11017;BME280;54687;50.800;6.772;2023-03-13T03:58:01;61078.25;;;-144.06;63.99
11017;BME280;54687;50.800;6.772;2023-03-13T04:00:28;61076.13;;;-144.06;64.11
11017;BME280;54687;50.800;6.772;2023-03-13T04:02:55;61067.75;;;-144.06;64.06
11017;BME280;54687;50.800;6.772;2023-03-13T04:05:21;61076.13;;;-144.06;63.93
11017;BME280;54687;50.800;6.772;2023-03-13T04:07:49;61067.75;;;-144.06;63.81
11017;BME280;54687;50.800;6.772;2023-03-13T04:10:16;61048.88;;;-144.06;63.82
11017;BME280;54687;50.800;6.772;2023-03-13T04:12:44;61080.34;;;-144.06;63.76
11017;BME280;54687;50.800;6.772;2023-03-13T04:15:11;61105.50;;;-144.06;63.55
11017;BME280;54687;50.800;6.772;2023-03-13T04:17:37;61025.84;;;-144.06;63.72
11017;BME280;54687;50.800;6.772;2023-03-13T04:20:05;61059.38;;;-144.06;63.76
11017;BME280;54687;50.800;6.772;2023-03-13T04:22:32;61132.75;;;-144.06;63.62
11017;BME280;54687;50.800;6.772;2023-03-13T04:25:00;61092.91;;;-144.06;63.94
11017;BME280;54687;50.800;6.772;2023-03-13T04:27:27;61095.00;;;-144.06;63.85
11017;BME280;54687;50.800;6.772;2023-03-13T04:29:54;61086.63;;;-144.06;64.07
11017;BME280;54687;50.800;6.772;2023-03-13T04:32:20;61084.53;;;-144.06;63.96
11017;BME280;54687;50.800;6.772;2023-03-13T04:34:47;61088.72;;;-144.06;64.10
11017;BME280;54687;50.800;6.772;2023-03-13T04:37:14;61080.34;;;-144.06;64.03
11017;BME280;54687;50.800;6.772;2023-03-13T04:39:40;61105.50;;;-144.06;64.07
11017;BME280;54687;50.800;6.772;2023-03-13T04:42:12;61071.94;;;-144.06;64.08
11017;BME280;54687;50.800;6.772;2023-03-13T04:44:38;61080.34;;;-144.06;64.03
11017;BME280;54687;50.800;6.772;2023-03-13T04:47:05;61113.88;;;-144.06;64.06
11017;BME280;54687;50.800;6.772;2023-03-13T04:49:31;61067.75;;;-144.06;64.03
11017;BME280;54687;50.800;6.772;2023-03-13T04:51:59;61092.91;;;-144.06;64.02
11017;BME280;54687;50.800;6.772;2023-03-13T04:54:26;61092.91;;;-144.06;64.00
11017;BME280;54687;50.800;6.772;2023-03-13T04:56:52;61076.13;;;-144.06;63.87
11017;BME280;54687;50.800;6.772;2023-03-13T04:59:20;61076.13;;;-144.06;63.80
11017;BME280;54687;50.800;6.772;2023-03-13T05:01:47;61092.91;;;-144.06;64.13
11017;BME280;54687;50.800;6.772;2023-03-13T05:04:13;61046.78;;;-144.06;63.88
11017;BME280;54687;50.800;6.772;2023-03-13T05:06:40;61032.13;;;-144.06;63.76
11017;BME280;54687;50.800;6.772;2023-03-13T05:09:06;61040.50;;;-144.06;63.81
11017;BME280;54687;50.800;6.772;2023-03-13T05:11:33;61080.34;;;-144.06;63.74
11017;BME280;54687;50.800;6.772;2023-03-13T05:14:00;61109.69;;;-144.06;63.53
11017;BME280;54687;50.800;6.772;2023-03-13T05:16:28;61105.50;;;-144.06;63.47
11017;BME280;54687;50.800;6.772;2023-03-13T05:18:54;61105.50;;;-144.06;63.45
11017;BME280;54687;50.800;6.772;2023-03-13T05:21:21;61109.69;;;-144.06;63.50
11017;BME280;54687;50.800;6.772;2023-03-13T05:23:48;61095.00;;;-144.06;63.40
11017;BME280;54687;50.800;6.772;2023-03-13T05:26:14;61059.38;;;-144.06;63.52
11017;BME280;54687;50.800;6.772;2023-03-13T05:28:41;61078.25;;;-144.06;63.66
11017;BME280;54687;50.800;6.772;2023-03-13T05:31:07;61063.56;;;-144.06;63.41
11017;BME280;54687;50.800;6.772;2023-03-13T05:33:35;61063.56;;;-144.06;63.57
11017;BME280;54687;50.800;6.772;2023-03-13T05:36:03;61113.88;;;-144.06;63.45
11017;BME280;54687;50.800;6.772;2023-03-13T05:38:30;61078.25;;;-144.06;63.49
11017;BME280;54687;50.800;6.772;2023-03-13T05:40:56;61067.75;;;-144.06;63.49
11017;BME280;54687;50.800;6.772;2023-03-13T05:43:23;61113.88;;;-144.06;63.56
11017;BME280;54687;50.800;6.772;2023-03-13T05:45:50;61069.84;;;-144.06;63.60
11017;BME280;54687;50.800;6.772;2023-03-13T05:48:17;61067.75;;;-144.06;63.52
11017;BME280;54687;50.800;6.772;2023-03-13T05:50:45;61034.22;;;-144.06;63.50
11017;BME280;54687;50.800;6.772;2023-03-13T05:53:11;61055.19;;;-144.06;63.52
11017;BME280;54687;50.800;6.772;2023-03-13T05:55:38;61025.84;;;-144.06;63.51
11017;BME280;54687;50.800;6.772;2023-03-13T05:58:05;61061.47;;;-144.06;63.49
11017;BME280;54687;50.800;6.772;2023-03-13T06:00:31;61076.13;;;-144.06;63.57
11017;BME280;54687;50.800;6.772;2023-03-13T06:02:58;61048.88;;;-144.06;63.50
11017;BME280;54687;50.800;6.772;2023-03-13T06:05:24;61055.19;;;-144.06;63.58
11017;BME280;54687;50.800;6.772;2023-03-13T06:07:53;61048.88;;;-144.06;63.77
11017;BME280;54687;50.800;6.772;2023-03-13T06:10:19;61040.50;;;-144.06;63.77
11017;BME280;54687;50.800;6.772;2023-03-13T06:12:51;61095.00;;;-144.06;63.86
11017;BME280;54687;50.800;6.772;2023-03-13T06:15:18;61023.75;;;-144.06;63.82
11017;BME280;54687;50.800;6.772;2023-03-13T06:17:45;61065.66;;;-144.06;63.89
11017;BME280;54687;50.800;6.772;2023-03-13T06:20:12;61055.19;;;-144.06;63.79
11017;BME280;54687;50.800;6.772;2023-03-13T06:22:39;61067.75;;;-144.06;63.81
11017;BME280;54687;50.800;6.772;2023-03-13T06:25:08;61046.78;;;-144.06;63.45
11017;BME280;54687;50.800;6.772;2023-03-13T06:27:35;61023.75;;;-144.06;63.46
11017;BME280;54687;50.800;6.772;2023-03-13T06:30:02;61053.09;;;-144.06;63.14
11017;BME280;54687;50.800;6.772;2023-03-13T06:32:29;61051.00;;;-144.06;63.15
11017;BME280;54687;50.800;6.772;2023-03-13T06:34:55;61095.00;;;-144.06;62.88
11017;BME280;54687;50.800;6.772;2023-03-13T06:37:22;61092.91;;;-144.06;62.63
11017;BME280;54687;50.800;6.772;2023-03-13T06:39:48;61069.84;;;-144.06;62.44
11017;BME280;54687;50.800;6.772;2023-03-13T06:42:16;61044.69;;;-144.06;62.34
11017;BME280;54687;50.800;6.772;2023-03-13T06:44:43;61046.78;;;-144.06;62.27
11017;BME280;54687;50.800;6.772;2023-03-13T06:47:10;61046.78;;;-144.06;62.14
11017;BME280;54687;50.800;6.772;2023-03-13T06:49:37;61084.53;;;-144.06;61.91
11017;BME280;54687;50.800;6.772;2023-03-13T06:52:03;61063.56;;;-144.06;61.66
11017;BME280;54687;50.800;6.772;2023-03-13T06:54:30;61032.13;;;-144.06;61.46
11017;BME280;54687;50.800;6.772;2023-03-13T06:56:57;61065.66;;;-144.06;61.21
11017;BME280;54687;50.800;6.772;2023-03-13T06:59:25;61038.41;;;-144.06;60.71
11017;BME280;54687;50.800;6.772;2023-03-13T07:01:51;61063.56;;;-144.06;60.05
11017;BME280;54687;50.800;6.772;2023-03-13T07:04:18;61074.03;;;-144.06;59.84
11017;BME280;54687;50.800;6.772;2023-03-13T07:06:45;61034.22;;;-144.06;59.61
11017;BME280;54687;50.800;6.772;2023-03-13T07:09:12;61034.22;;;-144.06;59.31
11017;BME280;54687;50.800;6.772;2023-03-13T07:11:38;61040.50;;;-144.06;58.71
11017;BME280;54687;50.800;6.772;2023-03-13T07:14:05;61063.56;;;-144.06;58.68
11017;BME280;54687;50.800;6.772;2023-03-13T07:16:33;61017.44;;;-144.06;58.54
11017;BME280;54687;50.800;6.772;2023-03-13T07:18:59;61034.22;;;-144.06;58.30
11017;BME280;54687;50.800;6.772;2023-03-13T07:21:26;61000.69;;;-144.06;58.04
11017;BME280;54687;50.800;6.772;2023-03-13T07:23:53;61025.84;;;-144.06;57.59
11017;BME280;54687;50.800;6.772;2023-03-13T07:26:19;61051.00;;;-144.06;57.76
11017;BME280;54687;50.800;6.772;2023-03-13T07:28:46;61042.59;;;-144.06;57.24
11017;BME280;54687;50.800;6.772;2023-03-13T07:31:14;61021.63;;;-144.06;57.20
11017;BME280;54687;50.800;6.772;2023-03-13T07:33:43;61057.28;;;-144.06;57.19
11017;BME280;54687;50.800;6.772;2023-03-13T07:36:11;61030.03;;;-144.06;57.05
11017;BME280;54687;50.800;6.772;2023-03-13T07:38:37;60992.28;;;-144.06;56.17
11017;BME280;54687;50.800;6.772;2023-03-13T07:41:04;60996.50;;;-144.06;56.04
11017;BME280;54687;50.800;6.772;2023-03-13T07:43:31;60992.28;;;-144.06;55.30
11017;BME280;54687;50.800;6.772;2023-03-13T07:45:59;61004.88;;;-144.06;54.99
11017;BME280;54687;50.800;6.772;2023-03-13T07:48:28;60992.28;;;-144.06;54.60
11017;BME280;54687;50.800;6.772;2023-03-13T07:50:57;61009.06;;;-144.06;54.59
11017;BME280;54687;50.800;6.772;2023-03-13T07:53:25;60992.28;;;-144.06;54.33
11017;BME280;54687;50.800;6.772;2023-03-13T07:55:53;61000.69;;;-144.06;54.39
11017;BME280;54687;50.800;6.772;2023-03-13T07:58:21;61004.88;;;-144.06;54.15
11017;BME280;54687;50.800;6.772;2023-03-13T08:00:47;61030.03;;;-144.06;53.93
11017;BME280;54687;50.800;6.772;2023-03-13T08:03:14;60996.50;;;-144.06;53.84
11017;BME280;54687;50.800;6.772;2023-03-13T08:05:41;61017.44;;;-144.06;53.93
11017;BME280;54687;50.800;6.772;2023-03-13T08:08:09;61021.63;;;-144.06;54.08
11017;BME280;54687;50.800;6.772;2023-03-13T08:10:36;60994.38;;;-144.06;54.22
11017;BME280;54687;50.800;6.772;2023-03-13T08:13:03;61025.84;;;-144.06;54.35
11017;BME280;54687;50.800;6.772;2023-03-13T08:15:30;61017.44;;;-144.06;54.50
11017;BME280;54687;50.800;6.772;2023-03-13T08:17:56;61023.75;;;-144.06;54.67
11017;BME280;54687;50.800;6.772;2023-03-13T08:20:23;60954.56;;;-144.06;54.67
11017;BME280;54687;50.800;6.772;2023-03-13T08:22:49;61021.63;;;-144.06;54.82
11017;BME280;54687;50.800;6.772;2023-03-13T08:25:17;60986.00;;;-144.06;54.84
11017;BME280;54687;50.800;6.772;2023-03-13T08:27:44;61009.06;;;-144.06;54.69
11017;BME280;54687;50.800;6.772;2023-03-13T08:30:11;60992.28;;;-144.06;55.04
11017;BME280;54687;50.800;6.772;2023-03-13T08:32:38;61030.03;;;-144.06;55.27
11017;BME280;54687;50.800;6.772;2023-03-13T08:35:06;60979.72;;;-144.06;55.58
11017;BME280;54687;50.800;6.772;2023-03-13T08:37:33;61032.13;;;-144.06;55.76
11017;BME280;54687;50.800;6.772;2023-03-13T08:40:00;61025.84;;;-144.06;55.87
11017;BME280;54687;50.800;6.772;2023-03-13T08:42:27;61009.06;;;-144.06;55.90
11017;BME280;54687;50.800;6.772;2023-03-13T08:44:55;61015.34;;;-144.06;56.08
11017;BME280;54687;50.800;6.772;2023-03-13T08:47:21;61009.06;;;-144.06;56.07
11017;BME280;54687;50.800;6.772;2023-03-13T08:49:48;61013.25;;;-144.06;56.14
11017;BME280;54687;50.800;6.772;2023-03-13T08:52:14;60998.59;;;-144.06;56.17
11017;BME280;54687;50.800;6.772;2023-03-13T08:54:41;61036.31;;;-144.06;56.38
11017;BME280;54687;50.800;6.772;2023-03-13T08:57:08;61048.88;;;-144.06;56.38
11017;BME280;54687;50.800;6.772;2023-03-13T08:59:36;61021.63;;;-144.06;56.32
11017;BME280;54687;50.800;6.772;2023-03-13T09:02:03;60998.59;;;-144.06;56.38
11017;BME280;54687;50.800;6.772;2023-03-13T09:04:30;61025.84;;;-144.06;56.32
11017;BME280;54687;50.800;6.772;2023-03-13T09:06:56;61025.84;;;-144.06;56.34
11017;BME280;54687;50.800;6.772;2023-03-13T09:09:23;60988.09;;;-144.06;56.17
11017;BME280;54687;50.800;6.772;2023-03-13T09:11:50;61009.06;;;-144.06;56.17
11017;BME280;54687;50.800;6.772;2023-03-13T09:14:16;60996.50;;;-144.06;56.12
11017;BME280;54687;50.800;6.772;2023-03-13T09:16:44;61009.06;;;-144.06;56.22
11017;BME280;54687;50.800;6.772;2023-03-13T09:19:12;61034.22;;;-144.06;56.19
11017;BME280;54687;50.800;6.772;2023-03-13T09:21:39;61032.13;;;-144.06;56.23
11017;BME280;54687;50.800;6.772;2023-03-13T09:24:07;60986.00;;;-144.06;56.14
11017;BME280;54687;50.800;6.772;2023-03-13T09:26:33;61002.78;;;-144.06;56.71
11017;BME280;54687;50.800;6.772;2023-03-13T09:29:00;60996.50;;;-144.06;56.95
11017;BME280;54687;50.800;6.772;2023-03-13T09:31:28;60975.53;;;-144.06;57.01
11017;BME280;54687;50.800;6.772;2023-03-13T09:33:57;60996.50;;;-144.06;57.12
11017;BME280;54687;50.800;6.772;2023-03-13T09:36:24;61034.22;;;-144.06;57.06
11017;BME280;54687;50.800;6.772;2023-03-13T09:38:52;61055.19;;;-144.06;57.06
11017;BME280;54687;50.800;6.772;2023-03-13T09:41:23;60983.91;;;-144.06;57.44
11017;BME280;54687;50.800;6.772;2023-03-13T09:43:56;60996.50;;;-144.06;57.54
11017;BME280;54687;50.800;6.772;2023-03-13T09:46:32;61004.88;;;-144.06;57.46
11017;BME280;54687;50.800;6.772;2023-03-13T09:49:03;61021.63;;;-144.06;57.10
11017;BME280;54687;50.800;6.772;2023-03-13T09:51:34;61004.88;;;-144.06;56.95
11017;BME280;54687;50.800;6.772;2023-03-13T09:54:06;60986.00;;;-144.06;56.24
11017;BME280;54687;50.800;6.772;2023-03-13T09:56:38;60962.94;;;-144.06;55.82
11017;BME280;54687;50.800;6.772;2023-03-13T09:59:12;60996.50;;;-144.06;55.21
11017;BME280;54687;50.800;6.772;2023-03-13T10:01:43;60983.91;;;-144.06;54.74
11017;BME280;54687;50.800;6.772;2023-03-13T10:04:24;60944.09;;;-144.06;54.64
11017;BME280;54687;50.800;6.772;2023-03-13T10:06:53;60946.19;;;-144.06;54.23
11017;BME280;54687;50.800;6.772;2023-03-13T10:09:23;60967.13;;;-144.06;54.47
11017;BME280;54687;50.800;6.772;2023-03-13T10:11:55;60956.66;;;-144.06;53.81
11017;BME280;54687;50.800;6.772;2023-03-13T10:14:29;60962.94;;;-144.06;53.50
11017;BME280;54687;50.800;6.772;2023-03-13T10:17:01;60937.78;;;-144.06;53.47
11017;BME280;54687;50.800;6.772;2023-03-13T10:19:36;60921.03;;;-144.06;53.13
11017;BME280;54687;50.800;6.772;2023-03-13T10:22:12;60998.59;;;-144.06;52.71
11017;BME280;54687;50.800;6.772;2023-03-13T10:24:44;60988.09;;;-144.06;52.49
11017;BME280;54687;50.800;6.772;2023-03-13T10:27:13;60979.72;;;-144.06;52.22
11017;BME280;54687;50.800;6.772;2023-03-13T10:29:41;60946.19;;;-144.06;51.90
11017;BME280;54687;50.800;6.772;2023-03-13T10:32:10;60931.50;;;-144.06;51.43
11017;BME280;54687;50.800;6.772;2023-03-13T10:34:49;60979.72;;;-144.06;51.07
11017;BME280;54687;50.800;6.772;2023-03-13T10:37:20;60921.03;;;-144.06;51.01
11017;BME280;54687;50.800;6.772;2023-03-13T10:39:47;60933.59;;;-144.06;51.08
11017;BME280;54687;50.800;6.772;2023-03-13T10:42:20;60946.19;;;-144.06;50.55
11017;BME280;54687;50.800;6.772;2023-03-13T10:44:47;60937.78;;;-144.06;50.23
11017;BME280;54687;50.800;6.772;2023-03-13T10:47:14;60929.41;;;-144.06;50.36
11017;BME280;54687;50.800;6.772;2023-03-13T10:49:48;60952.47;;;-144.06;50.57
11017;BME280;54687;50.800;6.772;2023-03-13T10:52:35;60952.47;;;-144.06;50.61
11017;BME280;54687;50.800;6.772;2023-03-13T10:55:10;60975.53;;;-144.06;50.33
11017;BME280;54687;50.800;6.772;2023-03-13T10:57:38;60908.44;;;-144.06;50.36
11017;BME280;54687;50.800;6.772;2023-03-13T11:00:23;60937.78;;;-144.06;49.44
11017;BME280;54687;50.800;6.772;2023-03-13T11:02:53;60937.78;;;-144.06;49.72
11017;BME280;54687;50.800;6.772;2023-03-13T11:05:35;60872.81;;;-144.06;48.78
11017;BME280;54687;50.800;6.772;2023-03-13T11:08:18;60889.59;;;-144.06;49.07
11017;BME280;54687;50.800;6.772;2023-03-13T11:10:55;60908.44;;;-144.06;49.25
11017;BME280;54687;50.800;6.772;2023-03-13T11:13:36;60887.47;;;-144.06;49.15
11017;BME280;54687;50.800;6.772;2023-03-13T11:16:19;60874.91;;;-144.06;48.55
11017;BME280;54687;50.800;6.772;2023-03-13T11:19:11;60895.88;;;-144.06;48.29
11017;BME280;54687;50.800;6.772;2023-03-13T11:21:49;60870.72;;;-144.06;47.71
11017;BME280;54687;50.800;6.772;2023-03-13T11:24:27;60914.72;;;-144.06;47.26
11017;BME280;54687;50.800;6.772;2023-03-13T11:27:00;60897.97;;;-144.06;47.07
11017;BME280;54687;50.800;6.772;2023-03-13T11:29:33;60895.88;;;-144.06;47.46
11017;BME280;54687;50.800;6.772;2023-03-13T11:32:10;60895.88;;;-144.06;46.64
11017;BME280;54687;50.800;6.772;2023-03-13T11:34:45;60874.91;;;-144.06;46.49
11017;BME280;54687;50.800;6.772;2023-03-13T11:37:16;60883.28;;;-144.06;46.98
11017;BME280;54687;50.800;6.772;2023-03-13T11:39:54;60877.00;;;-144.06;47.02
11017;BME280;54687;50.800;6.772;2023-03-13T11:42:38;60874.91;;;-144.06;46.82
11017;BME280;54687;50.800;6.772;2023-03-13T11:45:20;60874.91;;;-144.06;46.48
11017;BME280;54687;50.800;6.772;2023-03-13T11:47:56;60870.72;;;-144.06;46.42
11017;BME280;54687;50.800;6.772;2023-03-13T11:50:34;60835.09;;;-144.06;46.13
11017;BME280;54687;50.800;6.772;2023-03-13T11:53:13;60874.91;;;-144.06;46.53
11017;BME280;54687;50.800;6.772;2023-03-13T11:55:55;60883.28;;;-144.06;46.28
11017;BME280;54687;50.800;6.772;2023-03-13T11:58:37;60891.69;;;-144.06;46.45
11017;BME280;54687;50.800;6.772;2023-03-13T12:01:10;60881.19;;;-144.06;46.76
11017;BME280;54687;50.800;6.772;2023-03-13T12:03:43;60874.91;;;-144.06;47.38
11017;BME280;54687;50.800;6.772;2023-03-13T12:06:21;60908.44;;;-144.06;47.19
11017;BME280;54687;50.800;6.772;2023-03-13T12:08:52;60883.28;;;-144.06;46.80
11017;BME280;54687;50.800;6.772;2023-03-13T12:11:23;60948.28;;;-144.06;46.36
11017;BME280;54687;50.800;6.772;2023-03-13T12:13:56;60881.19;;;-144.06;45.79
11017;BME280;54687;50.800;6.772;2023-03-13T12:16:26;60858.13;;;-144.06;45.79
11017;BME280;54687;50.800;6.772;2023-03-13T12:18:54;60853.94;;;-144.06;45.53
11017;BME280;54687;50.800;6.772;2023-03-13T12:21:27;60883.28;;;-144.06;44.86
11017;BME280;54687;50.800;6.772;2023-03-13T12:24:03;60887.47;;;-144.06;44.52
11017;BME280;54687;50.800;6.772;2023-03-13T12:26:37;60845.56;;;-144.06;44.73
11017;BME280;54687;50.800;6.772;2023-03-13T12:29:13;60860.25;;;-144.06;45.21
11017;BME280;54687;50.800;6.772;2023-03-13T12:31:46;60853.94;;;-144.06;45.13
11017;BME280;54687;50.800;6.772;2023-03-13T12:34:20;60864.44;;;-144.06;45.25
11017;BME280;54687;50.800;6.772;2023-03-13T12:36:51;60851.84;;;-144.06;44.81
11017;BME280;54687;50.800;6.772;2023-03-13T12:39:29;60887.47;;;-144.06;45.05
11017;BME280;54687;50.800;6.772;2023-03-13T12:42:22;60839.28;;;-144.06;44.66
11017;BME280;54687;50.800;6.772;2023-03-13T12:44:55;60889.59;;;-144.06;44.03
11017;BME280;54687;50.800;6.772;2023-03-13T12:47:29;60870.72;;;-144.06;44.24
11017;BME280;54687;50.800;6.772;2023-03-13T12:50:26;60883.28;;;-144.06;44.22